sensor_id;sensor_type;location;lat;lon;timestamp;P1;durP1;ratioP1;P2;durP2;ratioP2
35743;SDS011;21867;52.012;4.324;2022-08-21T00:02:14;9.57;;;3.00;;
35743;SDS011;21867;52.012;4.324;2022-08-21T00:04:41;8.13;;;2.50;;
35743;SDS011;21867;52.012;4.324;2022-08-21T00:07:25;9.23;;;3.23;;
35743;SDS011;21867;52.012;4.324;2022-08-21T00:10:03;5.77;;;2.30;;
35743;SDS011;21867;52.012;4.324;2022-08-21T00:12:34;4.87;;;2.63;;
35743;SDS011;21867;52.012;4.324;2022-08-21T00:15:01;6.07;;;2.70;;
35743;SDS011;21867;52.012;4.324;2022-08-21T00:17:35;5.67;;;2.60;;
35743;SDS011;21867;52.012;4.324;2022-08-21T00:20:03;9.23;;;3.43;;
35743;SDS011;21867;52.012;4.324;2022-08-21T00:22:36;6.87;;;2.80;;
35743;SDS011;21867;52.012;4.324;2022-08-21T00:25:03;6.93;;;2.83;;
35743;SDS011;21867;52.012;4.324;2022-08-21T00:27:31;8.43;;;2.57;;
35743;SDS011;21867;52.012;4.324;2022-08-21T00:29:58;7.50;;;2.50;;
35743;SDS011;21867;52.012;4.324;2022-08-21T00:32:26;9.90;;;2.73;;
35743;SDS011;21867;52.012;4.324;2022-08-21T00:34:55;12.57;;;3.13;;
35743;SDS011;21867;52.012;4.324;2022-08-21T00:37:23;9.97;;;3.10;;
35743;SDS011;21867;52.012;4.324;2022-08-21T00:39:50;6.90;;;2.57;;
35743;SDS011;21867;52.012;4.324;2022-08-21T00:42:17;7.13;;;2.60;;
35743;SDS011;21867;52.012;4.324;2022-08-21T00:44:46;8.57;;;3.27;;
35743;SDS011;21867;52.012;4.324;2022-08-21T00:47:19;9.37;;;2.87;;
35743;SDS011;21867;52.012;4.324;2022-08-21T00:49:52;9.27;;;2.97;;
35743;SDS011;21867;52.012;4.324;2022-08-21T00:52:33;7.73;;;2.73;;
35743;SDS011;21867;52.012;4.324;2022-08-21T00:55:03;5.67;;;2.53;;
35743;SDS011;21867;52.012;4.324;2022-08-21T00:57:34;6.83;;;3.00;;
35743;SDS011;21867;52.012;4.324;2022-08-21T01:00:07;7.67;;;2.47;;
35743;SDS011;21867;52.012;4.324;2022-08-21T01:02:35;9.13;;;2.70;;
35743;SDS011;21867;52.012;4.324;2022-08-21T01:05:03;6.80;;;2.67;;
35743;SDS011;21867;52.012;4.324;2022-08-21T01:07:30;6.60;;;2.80;;
35743;SDS011;21867;52.012;4.324;2022-08-21T01:09:59;10.20;;;2.87;;
35743;SDS011;21867;52.012;4.324;2022-08-21T01:12:27;9.13;;;2.83;;
35743;SDS011;21867;52.012;4.324;2022-08-21T01:14:55;6.70;;;2.47;;
35743;SDS011;21867;52.012;4.324;2022-08-21T01:17:22;7.33;;;2.67;;
35743;SDS011;21867;52.012;4.324;2022-08-21T01:19:50;8.90;;;2.77;;
35743;SDS011;21867;52.012;4.324;2022-08-21T01:22:37;5.53;;;2.37;;
35743;SDS011;21867;52.012;4.324;2022-08-21T01:31:52;6.63;;;2.40;;
35743;SDS011;21867;52.012;4.324;2022-08-21T01:34:19;4.23;;;2.30;;
35743;SDS011;21867;52.012;4.324;2022-08-21T01:36:47;8.33;;;2.77;;
35743;SDS011;21867;52.012;4.324;2022-08-21T01:39:15;9.10;;;2.60;;
35743;SDS011;21867;52.012;4.324;2022-08-21T01:44:41;6.27;;;2.67;;
35743;SDS011;21867;52.012;4.324;2022-08-21T01:47:10;5.10;;;2.50;;
35743;SDS011;21867;52.012;4.324;2022-08-21T01:49:39;7.23;;;2.83;;
35743;SDS011;21867;52.012;4.324;2022-08-21T01:52:10;5.47;;;2.50;;
35743;SDS011;21867;52.012;4.324;2022-08-21T01:57:37;8.17;;;2.40;;
35743;SDS011;21867;52.012;4.324;2022-08-21T02:00:07;7.27;;;2.10;;
35743;SDS011;21867;52.012;4.324;2022-08-21T02:02:37;6.43;;;2.27;;
35743;SDS011;21867;52.012;4.324;2022-08-21T02:05:04;6.90;;;2.50;;
35743;SDS011;21867;52.012;4.324;2022-08-21T02:07:35;5.17;;;2.20;;
35743;SDS011;21867;52.012;4.324;2022-08-21T02:10:03;5.83;;;2.70;;
35743;SDS011;21867;52.012;4.324;2022-08-21T02:12:31;5.60;;;2.10;;
35743;SDS011;21867;52.012;4.324;2022-08-21T02:15:00;6.23;;;2.30;;
35743;SDS011;21867;52.012;4.324;2022-08-21T02:17:27;7.67;;;2.57;;
35743;SDS011;21867;52.012;4.324;2022-08-21T02:19:54;13.70;;;2.73;;
35743;SDS011;21867;52.012;4.324;2022-08-21T02:22:30;6.90;;;2.70;;
35743;SDS011;21867;52.012;4.324;2022-08-21T02:27:47;7.50;;;2.80;;
35743;SDS011;21867;52.012;4.324;2022-08-21T02:30:18;9.17;;;2.40;;
35743;SDS011;21867;52.012;4.324;2022-08-21T02:32:45;7.60;;;3.93;;
35743;SDS011;21867;52.012;4.324;2022-08-21T02:35:13;6.67;;;2.93;;
35743;SDS011;21867;52.012;4.324;2022-08-21T02:37:44;3.83;;;2.37;;
35743;SDS011;21867;52.012;4.324;2022-08-21T02:43:13;9.27;;;2.73;;
35743;SDS011;21867;52.012;4.324;2022-08-21T02:45:43;8.47;;;2.80;;
35743;SDS011;21867;52.012;4.324;2022-08-21T02:48:11;5.83;;;2.43;;
35743;SDS011;21867;52.012;4.324;2022-08-21T02:50:48;8.30;;;2.47;;
35743;SDS011;21867;52.012;4.324;2022-08-21T02:53:30;7.67;;;2.83;;
35743;SDS011;21867;52.012;4.324;2022-08-21T02:56:13;7.63;;;2.90;;
35743;SDS011;21867;52.012;4.324;2022-08-21T02:58:42;10.43;;;2.90;;
35743;SDS011;21867;52.012;4.324;2022-08-21T03:01:11;9.00;;;3.07;;
35743;SDS011;21867;52.012;4.324;2022-08-21T03:03:40;3.50;;;2.40;;
35743;SDS011;21867;52.012;4.324;2022-08-21T03:06:08;6.57;;;2.93;;
35743;SDS011;21867;52.012;4.324;2022-08-21T03:08:36;5.60;;;2.47;;
35743;SDS011;21867;52.012;4.324;2022-08-21T03:11:03;8.10;;;3.33;;
35743;SDS011;21867;52.012;4.324;2022-08-21T03:13:33;7.63;;;3.00;;
35743;SDS011;21867;52.012;4.324;2022-08-21T03:16:01;7.73;;;3.10;;
35743;SDS011;21867;52.012;4.324;2022-08-21T03:18:36;5.80;;;2.50;;
35743;SDS011;21867;52.012;4.324;2022-08-21T03:21:05;7.27;;;2.60;;
35743;SDS011;21867;52.012;4.324;2022-08-21T03:23:32;7.33;;;2.57;;
35743;SDS011;21867;52.012;4.324;2022-08-21T03:26:18;9.23;;;2.67;;
35743;SDS011;21867;52.012;4.324;2022-08-21T03:29:06;5.53;;;2.70;;
35743;SDS011;21867;52.012;4.324;2022-08-21T03:31:43;4.80;;;3.30;;
35743;SDS011;21867;52.012;4.324;2022-08-21T03:34:11;8.53;;;2.73;;
35743;SDS011;21867;52.012;4.324;2022-08-21T03:36:39;6.30;;;2.67;;
35743;SDS011;21867;52.012;4.324;2022-08-21T03:39:06;7.07;;;2.70;;
35743;SDS011;21867;52.012;4.324;2022-08-21T03:41:33;7.70;;;2.60;;
35743;SDS011;21867;52.012;4.324;2022-08-21T03:44:01;8.80;;;2.50;;
35743;SDS011;21867;52.012;4.324;2022-08-21T03:46:28;7.23;;;2.70;;
35743;SDS011;21867;52.012;4.324;2022-08-21T03:48:55;10.67;;;2.80;;
35743;SDS011;21867;52.012;4.324;2022-08-21T03:51:24;8.57;;;3.03;;
35743;SDS011;21867;52.012;4.324;2022-08-21T03:53:51;6.53;;;2.60;;
35743;SDS011;21867;52.012;4.324;2022-08-21T03:56:37;11.47;;;3.50;;
35743;SDS011;21867;52.012;4.324;2022-08-21T03:59:05;8.43;;;3.47;;
35743;SDS011;21867;52.012;4.324;2022-08-21T04:01:33;7.67;;;3.10;;
35743;SDS011;21867;52.012;4.324;2022-08-21T04:04:00;9.80;;;2.73;;
35743;SDS011;21867;52.012;4.324;2022-08-21T04:06:29;7.47;;;3.43;;
35743;SDS011;21867;52.012;4.324;2022-08-21T04:09:02;12.07;;;3.13;;
35743;SDS011;21867;52.012;4.324;2022-08-21T04:11:30;6.80;;;2.87;;
35743;SDS011;21867;52.012;4.324;2022-08-21T04:16:52;7.40;;;3.33;;
35743;SDS011;21867;52.012;4.324;2022-08-21T04:19:19;5.57;;;2.90;;
35743;SDS011;21867;52.012;4.324;2022-08-21T04:21:48;7.23;;;2.90;;
35743;SDS011;21867;52.012;4.324;2022-08-21T04:24:32;9.30;;;2.80;;
35743;SDS011;21867;52.012;4.324;2022-08-21T04:27:03;9.13;;;3.17;;
35743;SDS011;21867;52.012;4.324;2022-08-21T04:29:30;10.80;;;3.53;;
35743;SDS011;21867;52.012;4.324;2022-08-21T04:32:02;8.90;;;3.30;;
35743;SDS011;21867;52.012;4.324;2022-08-21T04:34:29;10.03;;;3.63;;
35743;SDS011;21867;52.012;4.324;2022-08-21T04:36:58;9.33;;;4.07;;
35743;SDS011;21867;52.012;4.324;2022-08-21T04:39:25;11.97;;;3.50;;
35743;SDS011;21867;52.012;4.324;2022-08-21T04:41:55;10.30;;;3.70;;
35743;SDS011;21867;52.012;4.324;2022-08-21T04:44:22;6.87;;;3.40;;
35743;SDS011;21867;52.012;4.324;2022-08-21T04:46:49;9.47;;;3.87;;
35743;SDS011;21867;52.012;4.324;2022-08-21T04:49:16;11.40;;;3.63;;
35743;SDS011;21867;52.012;4.324;2022-08-21T04:51:44;10.20;;;3.90;;
35743;SDS011;21867;52.012;4.324;2022-08-21T04:54:22;9.20;;;3.27;;
35743;SDS011;21867;52.012;4.324;2022-08-21T05:00:24;10.13;;;3.67;;
35743;SDS011;21867;52.012;4.324;2022-08-21T05:02:52;11.10;;;3.63;;
35743;SDS011;21867;52.012;4.324;2022-08-21T05:05:22;12.70;;;3.80;;
35743;SDS011;21867;52.012;4.324;2022-08-21T05:07:49;10.03;;;4.00;;
35743;SDS011;21867;52.012;4.324;2022-08-21T05:10:18;12.57;;;3.43;;
35743;SDS011;21867;52.012;4.324;2022-08-21T05:12:46;9.47;;;3.50;;
35743;SDS011;21867;52.012;4.324;2022-08-21T05:15:16;8.63;;;3.17;;
35743;SDS011;21867;52.012;4.324;2022-08-21T05:17:43;10.73;;;4.10;;
35743;SDS011;21867;52.012;4.324;2022-08-21T05:20:26;8.00;;;3.30;;
35743;SDS011;21867;52.012;4.324;2022-08-21T05:22:53;9.67;;;3.83;;
35743;SDS011;21867;52.012;4.324;2022-08-21T05:25:22;8.83;;;3.63;;
35743;SDS011;21867;52.012;4.324;2022-08-21T05:27:49;10.30;;;3.90;;
35743;SDS011;21867;52.012;4.324;2022-08-21T05:30:23;7.97;;;3.37;;
35743;SDS011;21867;52.012;4.324;2022-08-21T05:32:56;10.67;;;3.57;;
35743;SDS011;21867;52.012;4.324;2022-08-21T05:35:34;7.63;;;3.67;;
35743;SDS011;21867;52.012;4.324;2022-08-21T05:38:03;9.30;;;3.93;;
35743;SDS011;21867;52.012;4.324;2022-08-21T05:40:32;7.90;;;3.40;;
35743;SDS011;21867;52.012;4.324;2022-08-21T05:42:59;16.53;;;3.83;;
35743;SDS011;21867;52.012;4.324;2022-08-21T05:45:28;13.47;;;3.90;;
35743;SDS011;21867;52.012;4.324;2022-08-21T05:48:09;10.07;;;4.50;;
35743;SDS011;21867;52.012;4.324;2022-08-21T05:50:37;16.93;;;4.60;;
35743;SDS011;21867;52.012;4.324;2022-08-21T05:53:04;11.77;;;4.70;;
35743;SDS011;21867;52.012;4.324;2022-08-21T05:55:34;12.80;;;4.33;;
35743;SDS011;21867;52.012;4.324;2022-08-21T05:58:06;9.73;;;4.27;;
35743;SDS011;21867;52.012;4.324;2022-08-21T06:00:34;7.37;;;3.20;;
35743;SDS011;21867;52.012;4.324;2022-08-21T06:03:02;14.30;;;5.27;;
35743;SDS011;21867;52.012;4.324;2022-08-21T06:05:30;9.50;;;4.77;;
35743;SDS011;21867;52.012;4.324;2022-08-21T06:08:03;5.87;;;3.07;;
35743;SDS011;21867;52.012;4.324;2022-08-21T06:10:30;9.37;;;4.57;;
35743;SDS011;21867;52.012;4.324;2022-08-21T06:12:59;6.57;;;3.63;;
35743;SDS011;21867;52.012;4.324;2022-08-21T06:15:26;12.03;;;4.07;;
35743;SDS011;21867;52.012;4.324;2022-08-21T06:17:54;10.50;;;4.27;;
35743;SDS011;21867;52.012;4.324;2022-08-21T06:20:22;9.10;;;4.17;;
35743;SDS011;21867;52.012;4.324;2022-08-21T06:22:49;13.23;;;3.90;;
35743;SDS011;21867;52.012;4.324;2022-08-21T06:25:17;10.50;;;3.80;;
35743;SDS011;21867;52.012;4.324;2022-08-21T06:27:44;13.23;;;4.43;;
35743;SDS011;21867;52.012;4.324;2022-08-21T06:30:13;13.73;;;3.73;;
35743;SDS011;21867;52.012;4.324;2022-08-21T06:32:41;12.37;;;3.97;;
35743;SDS011;21867;52.012;4.324;2022-08-21T06:35:08;10.83;;;3.97;;
35743;SDS011;21867;52.012;4.324;2022-08-21T06:37:35;9.10;;;4.43;;
35743;SDS011;21867;52.012;4.324;2022-08-21T06:40:03;12.60;;;3.80;;
35743;SDS011;21867;52.012;4.324;2022-08-21T06:42:38;10.67;;;4.40;;
35743;SDS011;21867;52.012;4.324;2022-08-21T06:45:08;12.33;;;4.03;;
35743;SDS011;21867;52.012;4.324;2022-08-21T06:47:37;13.50;;;4.20;;
35743;SDS011;21867;52.012;4.324;2022-08-21T06:50:04;10.80;;;4.13;;
35743;SDS011;21867;52.012;4.324;2022-08-21T06:52:32;12.13;;;4.30;;
35743;SDS011;21867;52.012;4.324;2022-08-21T06:54:59;15.37;;;4.13;;
35743;SDS011;21867;52.012;4.324;2022-08-21T06:57:26;11.53;;;3.80;;
35743;SDS011;21867;52.012;4.324;2022-08-21T06:59:54;12.73;;;4.10;;
35743;SDS011;21867;52.012;4.324;2022-08-21T07:02:21;11.93;;;4.63;;
35743;SDS011;21867;52.012;4.324;2022-08-21T07:04:50;6.23;;;3.43;;
35743;SDS011;21867;52.012;4.324;2022-08-21T07:07:19;11.63;;;4.43;;
35743;SDS011;21867;52.012;4.324;2022-08-21T07:09:47;10.80;;;3.40;;
35743;SDS011;21867;52.012;4.324;2022-08-21T07:12:14;11.83;;;3.70;;
35743;SDS011;21867;52.012;4.324;2022-08-21T07:14:41;8.90;;;3.50;;
35743;SDS011;21867;52.012;4.324;2022-08-21T07:17:09;11.43;;;3.57;;
35743;SDS011;21867;52.012;4.324;2022-08-21T07:19:36;12.13;;;3.43;;
35743;SDS011;21867;52.012;4.324;2022-08-21T07:22:05;12.53;;;2.77;;
35743;SDS011;21867;52.012;4.324;2022-08-21T07:24:32;13.17;;;4.50;;
35743;SDS011;21867;52.012;4.324;2022-08-21T07:27:08;11.17;;;3.70;;
35743;SDS011;21867;52.012;4.324;2022-08-21T07:29:36;11.63;;;3.83;;
35743;SDS011;21867;52.012;4.324;2022-08-21T07:32:06;13.00;;;2.90;;
35743;SDS011;21867;52.012;4.324;2022-08-21T07:34:33;10.90;;;3.17;;
35743;SDS011;21867;52.012;4.324;2022-08-21T07:37:00;8.07;;;3.23;;
35743;SDS011;21867;52.012;4.324;2022-08-21T07:39:36;9.43;;;2.73;;
35743;SDS011;21867;52.012;4.324;2022-08-21T07:42:04;10.47;;;3.30;;
35743;SDS011;21867;52.012;4.324;2022-08-21T07:44:33;7.90;;;2.90;;
35743;SDS011;21867;52.012;4.324;2022-08-21T07:47:01;15.50;;;3.47;;
35743;SDS011;21867;52.012;4.324;2022-08-21T07:49:28;8.80;;;2.87;;
35743;SDS011;21867;52.012;4.324;2022-08-21T07:51:56;12.00;;;3.50;;
35743;SDS011;21867;52.012;4.324;2022-08-21T07:54:24;9.50;;;3.00;;
35743;SDS011;21867;52.012;4.324;2022-08-21T07:57:01;9.77;;;3.20;;
35743;SDS011;21867;52.012;4.324;2022-08-21T07:59:28;11.67;;;3.57;;
35743;SDS011;21867;52.012;4.324;2022-08-21T08:01:56;13.63;;;3.20;;
35743;SDS011;21867;52.012;4.324;2022-08-21T08:04:23;9.07;;;3.03;;
35743;SDS011;21867;52.012;4.324;2022-08-21T08:06:52;14.47;;;3.10;;
35743;SDS011;21867;52.012;4.324;2022-08-21T08:09:19;10.70;;;2.90;;
35743;SDS011;21867;52.012;4.324;2022-08-21T08:11:46;17.87;;;3.47;;
35743;SDS011;21867;52.012;4.324;2022-08-21T08:14:17;9.83;;;3.07;;
35743;SDS011;21867;52.012;4.324;2022-08-21T08:16:51;13.27;;;3.77;;
35743;SDS011;21867;52.012;4.324;2022-08-21T08:19:19;11.00;;;3.23;;
35743;SDS011;21867;52.012;4.324;2022-08-21T08:21:46;9.13;;;2.70;;
35743;SDS011;21867;52.012;4.324;2022-08-21T08:24:13;17.47;;;2.80;;
35743;SDS011;21867;52.012;4.324;2022-08-21T08:26:45;9.57;;;2.40;;
35743;SDS011;21867;52.012;4.324;2022-08-21T08:29:20;8.70;;;2.50;;
35743;SDS011;21867;52.012;4.324;2022-08-21T08:31:47;7.47;;;3.10;;
35743;SDS011;21867;52.012;4.324;2022-08-21T08:34:16;8.50;;;2.00;;
35743;SDS011;21867;52.012;4.324;2022-08-21T08:36:51;7.63;;;2.53;;
35743;SDS011;21867;52.012;4.324;2022-08-21T08:39:18;9.50;;;2.57;;
35743;SDS011;21867;52.012;4.324;2022-08-21T08:41:52;9.60;;;3.27;;
35743;SDS011;21867;52.012;4.324;2022-08-21T08:44:25;5.67;;;2.20;;
35743;SDS011;21867;52.012;4.324;2022-08-21T08:46:55;5.57;;;2.33;;
35743;SDS011;21867;52.012;4.324;2022-08-21T08:49:24;6.63;;;2.13;;
35743;SDS011;21867;52.012;4.324;2022-08-21T08:51:55;6.67;;;2.37;;
35743;SDS011;21867;52.012;4.324;2022-08-21T08:54:25;8.23;;;2.27;;
35743;SDS011;21867;52.012;4.324;2022-08-21T08:56:54;3.77;;;2.20;;
35743;SDS011;21867;52.012;4.324;2022-08-21T08:59:23;6.40;;;2.47;;
35743;SDS011;21867;52.012;4.324;2022-08-21T09:01:55;5.67;;;2.30;;
35743;SDS011;21867;52.012;4.324;2022-08-21T09:04:23;8.07;;;2.33;;
35743;SDS011;21867;52.012;4.324;2022-08-21T09:06:53;3.53;;;1.87;;
35743;SDS011;21867;52.012;4.324;2022-08-21T09:09:27;9.27;;;2.90;;
35743;SDS011;21867;52.012;4.324;2022-08-21T09:12:00;6.80;;;2.63;;
35743;SDS011;21867;52.012;4.324;2022-08-21T09:14:32;5.50;;;1.77;;
35743;SDS011;21867;52.012;4.324;2022-08-21T09:17:09;6.70;;;2.13;;
35743;SDS011;21867;52.012;4.324;2022-08-21T09:19:40;3.53;;;2.10;;
35743;SDS011;21867;52.012;4.324;2022-08-21T09:22:16;8.07;;;2.27;;
35743;SDS011;21867;52.012;4.324;2022-08-21T09:24:47;6.50;;;2.17;;
35743;SDS011;21867;52.012;4.324;2022-08-21T09:27:21;10.23;;;2.40;;
35743;SDS011;21867;52.012;4.324;2022-08-21T09:29:49;7.10;;;2.80;;
35743;SDS011;21867;52.012;4.324;2022-08-21T09:32:19;5.10;;;2.00;;
35743;SDS011;21867;52.012;4.324;2022-08-21T09:34:59;7.63;;;2.37;;
35743;SDS011;21867;52.012;4.324;2022-08-21T09:37:28;8.57;;;3.07;;
35743;SDS011;21867;52.012;4.324;2022-08-21T09:39:56;7.07;;;2.40;;
35743;SDS011;21867;52.012;4.324;2022-08-21T09:42:29;9.27;;;2.50;;
35743;SDS011;21867;52.012;4.324;2022-08-21T09:45:05;11.87;;;2.60;;
35743;SDS011;21867;52.012;4.324;2022-08-21T09:47:35;14.33;;;2.73;;
35743;SDS011;21867;52.012;4.324;2022-08-21T09:50:19;10.40;;;2.47;;
35743;SDS011;21867;52.012;4.324;2022-08-21T09:52:56;7.40;;;3.03;;
35743;SDS011;21867;52.012;4.324;2022-08-21T09:55:30;7.60;;;2.97;;
35743;SDS011;21867;52.012;4.324;2022-08-21T09:57:57;8.63;;;2.10;;
35743;SDS011;21867;52.012;4.324;2022-08-21T10:00:26;9.63;;;3.03;;
35743;SDS011;21867;52.012;4.324;2022-08-21T10:02:55;9.27;;;2.70;;
35743;SDS011;21867;52.012;4.324;2022-08-21T10:05:33;11.17;;;2.27;;
35743;SDS011;21867;52.012;4.324;2022-08-21T10:08:01;6.43;;;2.17;;
35743;SDS011;21867;52.012;4.324;2022-08-21T10:10:29;6.90;;;3.10;;
35743;SDS011;21867;52.012;4.324;2022-08-21T10:12:58;13.80;;;2.90;;
35743;SDS011;21867;52.012;4.324;2022-08-21T10:15:29;10.23;;;3.03;;
35743;SDS011;21867;52.012;4.324;2022-08-21T10:18:02;7.40;;;2.40;;
35743;SDS011;21867;52.012;4.324;2022-08-21T10:20:34;9.37;;;2.50;;
35743;SDS011;21867;52.012;4.324;2022-08-21T10:25:41;7.03;;;2.40;;
35743;SDS011;21867;52.012;4.324;2022-08-21T10:28:32;5.37;;;2.00;;
35743;SDS011;21867;52.012;4.324;2022-08-21T10:31:04;6.00;;;2.47;;
35743;SDS011;21867;52.012;4.324;2022-08-21T10:33:36;6.57;;;2.40;;
35743;SDS011;21867;52.012;4.324;2022-08-21T10:36:09;6.33;;;1.67;;
35743;SDS011;21867;52.012;4.324;2022-08-21T10:41:57;6.13;;;2.53;;
35743;SDS011;21867;52.012;4.324;2022-08-21T10:44:47;6.15;;;2.30;;
35743;SDS011;21867;52.012;4.324;2022-08-21T10:47:17;7.43;;;3.57;;
35743;SDS011;21867;52.012;4.324;2022-08-21T10:49:48;7.72;;;2.10;;
35743;SDS011;21867;52.012;4.324;2022-08-21T10:52:24;6.07;;;1.95;;
35743;SDS011;21867;52.012;4.324;2022-08-21T10:54:56;6.10;;;2.20;;
35743;SDS011;21867;52.012;4.324;2022-08-21T10:57:29;7.93;;;2.55;;
35743;SDS011;21867;52.012;4.324;2022-08-21T11:00:00;6.30;;;2.70;;
35743;SDS011;21867;52.012;4.324;2022-08-21T11:02:30;5.07;;;2.05;;
35743;SDS011;21867;52.012;4.324;2022-08-21T11:05:07;4.88;;;2.40;;
35743;SDS011;21867;52.012;4.324;2022-08-21T11:07:39;6.65;;;2.17;;
35743;SDS011;21867;52.012;4.324;2022-08-21T11:10:10;2.60;;;1.63;;
35743;SDS011;21867;52.012;4.324;2022-08-21T11:12:41;5.80;;;1.80;;
35743;SDS011;21867;52.012;4.324;2022-08-21T11:15:18;4.88;;;1.90;;
35743;SDS011;21867;52.012;4.324;2022-08-21T11:17:57;5.85;;;1.75;;
35743;SDS011;21867;52.012;4.324;2022-08-21T11:20:28;7.93;;;2.00;;
35743;SDS011;21867;52.012;4.324;2022-08-21T11:22:58;6.07;;;2.15;;
35743;SDS011;21867;52.012;4.324;2022-08-21T11:25:31;9.07;;;1.90;;
35743;SDS011;21867;52.012;4.324;2022-08-21T11:28:03;3.90;;;1.60;;
35743;SDS011;21867;52.012;4.324;2022-08-21T11:30:41;3.58;;;1.90;;
35743;SDS011;21867;52.012;4.324;2022-08-21T11:33:14;5.28;;;1.85;;
35743;SDS011;21867;52.012;4.324;2022-08-21T11:35:50;8.38;;;2.70;;
35743;SDS011;21867;52.012;4.324;2022-08-21T11:38:22;8.02;;;2.38;;
35743;SDS011;21867;52.012;4.324;2022-08-21T11:40:54;3.08;;;2.03;;
35743;SDS011;21867;52.012;4.324;2022-08-21T11:43:28;6.65;;;1.90;;
35743;SDS011;21867;52.012;4.324;2022-08-21T11:46:02;3.97;;;1.65;;
35743;SDS011;21867;52.012;4.324;2022-08-21T11:48:34;4.07;;;1.75;;
35743;SDS011;21867;52.012;4.324;2022-08-21T11:51:05;3.72;;;1.42;;
35743;SDS011;21867;52.012;4.324;2022-08-21T11:53:35;5.93;;;1.65;;
35743;SDS011;21867;52.012;4.324;2022-08-21T11:56:05;6.85;;;1.63;;
35743;SDS011;21867;52.012;4.324;2022-08-21T11:58:35;4.05;;;1.65;;
35743;SDS011;21867;52.012;4.324;2022-08-21T12:01:06;4.93;;;1.90;;
35743;SDS011;21867;52.012;4.324;2022-08-21T12:03:35;4.10;;;1.45;;
35743;SDS011;21867;52.012;4.324;2022-08-21T12:06:09;6.05;;;2.55;;
35743;SDS011;21867;52.012;4.324;2022-08-21T12:08:43;7.35;;;1.90;;
35743;SDS011;21867;52.012;4.324;2022-08-21T12:11:22;4.18;;;2.08;;
35743;SDS011;21867;52.012;4.324;2022-08-21T12:14:12;3.75;;;1.83;;
35743;SDS011;21867;52.012;4.324;2022-08-21T12:16:41;3.67;;;1.50;;
35743;SDS011;21867;52.012;4.324;2022-08-21T12:19:09;5.90;;;1.77;;
35743;SDS011;21867;52.012;4.324;2022-08-21T12:21:49;4.72;;;1.83;;
35743;SDS011;21867;52.012;4.324;2022-08-21T12:24:17;5.93;;;1.80;;
35743;SDS011;21867;52.012;4.324;2022-08-21T12:26:49;6.15;;;1.40;;
35743;SDS011;21867;52.012;4.324;2022-08-21T12:29:21;6.22;;;1.50;;
35743;SDS011;21867;52.012;4.324;2022-08-21T12:31:51;4.72;;;1.60;;
35743;SDS011;21867;52.012;4.324;2022-08-21T12:34:20;5.78;;;1.90;;
35743;SDS011;21867;52.012;4.324;2022-08-21T12:36:53;5.32;;;1.83;;
35743;SDS011;21867;52.012;4.324;2022-08-21T12:39:24;4.72;;;1.60;;
35743;SDS011;21867;52.012;4.324;2022-08-21T12:41:56;6.72;;;1.65;;
35743;SDS011;21867;52.012;4.324;2022-08-21T12:44:28;5.43;;;1.70;;
35743;SDS011;21867;52.012;4.324;2022-08-21T12:47:00;5.18;;;1.70;;
35743;SDS011;21867;52.012;4.324;2022-08-21T12:49:30;4.18;;;1.90;;
35743;SDS011;21867;52.012;4.324;2022-08-21T12:52:02;4.55;;;1.75;;
35743;SDS011;21867;52.012;4.324;2022-08-21T12:54:31;5.90;;;2.33;;
35743;SDS011;21867;52.012;4.324;2022-08-21T12:56:59;5.57;;;2.00;;
35743;SDS011;21867;52.012;4.324;2022-08-21T12:59:27;4.05;;;1.77;;
35743;SDS011;21867;52.012;4.324;2022-08-21T13:01:55;6.30;;;1.67;;
35743;SDS011;21867;52.012;4.324;2022-08-21T13:04:25;7.90;;;2.00;;
35743;SDS011;21867;52.012;4.324;2022-08-21T13:06:54;5.25;;;2.47;;
35743;SDS011;21867;52.012;4.324;2022-08-21T13:09:26;5.35;;;1.90;;
35743;SDS011;21867;52.012;4.324;2022-08-21T13:11:55;2.75;;;1.50;;
35743;SDS011;21867;52.012;4.324;2022-08-21T13:14:51;5.82;;;1.42;;
35743;SDS011;21867;52.012;4.324;2022-08-21T13:17:19;5.60;;;1.55;;
35743;SDS011;21867;52.012;4.324;2022-08-21T13:19:54;27.70;;;6.65;;
35743;SDS011;21867;52.012;4.324;2022-08-21T13:22:23;11.52;;;3.25;;
35743;SDS011;21867;52.012;4.324;2022-08-21T13:25:02;5.32;;;1.42;;
35743;SDS011;21867;52.012;4.324;2022-08-21T13:27:33;6.30;;;1.92;;
35743;SDS011;21867;52.012;4.324;2022-08-21T13:30:03;5.63;;;2.22;;
35743;SDS011;21867;52.012;4.324;2022-08-21T13:32:32;9.20;;;2.53;;
35743;SDS011;21867;52.012;4.324;2022-08-21T13:35:06;7.47;;;2.17;;
35743;SDS011;21867;52.012;4.324;2022-08-21T13:37:35;7.65;;;2.05;;
35743;SDS011;21867;52.012;4.324;2022-08-21T13:40:06;6.60;;;2.10;;
35743;SDS011;21867;52.012;4.324;2022-08-21T13:42:33;6.15;;;2.70;;
35743;SDS011;21867;52.012;4.324;2022-08-21T13:45:01;6.75;;;2.30;;
35743;SDS011;21867;52.012;4.324;2022-08-21T13:47:28;6.75;;;3.03;;
35743;SDS011;21867;52.012;4.324;2022-08-21T13:49:55;3.78;;;1.90;;
35743;SDS011;21867;52.012;4.324;2022-08-21T13:52:25;9.68;;;2.58;;
35743;SDS011;21867;52.012;4.324;2022-08-21T13:54:53;8.75;;;2.47;;
35743;SDS011;21867;52.012;4.324;2022-08-21T13:57:26;10.30;;;2.63;;
35743;SDS011;21867;52.012;4.324;2022-08-21T13:59:53;8.57;;;2.13;;
35743;SDS011;21867;52.012;4.324;2022-08-21T14:02:37;11.50;;;2.28;;
35743;SDS011;21867;52.012;4.324;2022-08-21T14:05:05;11.75;;;2.22;;
35743;SDS011;21867;52.012;4.324;2022-08-21T14:07:33;9.05;;;2.92;;
35743;SDS011;21867;52.012;4.324;2022-08-21T14:10:01;7.07;;;2.47;;
35743;SDS011;21867;52.012;4.324;2022-08-21T14:12:32;10.52;;;3.00;;
35743;SDS011;21867;52.012;4.324;2022-08-21T14:15:04;8.07;;;2.45;;
35743;SDS011;21867;52.012;4.324;2022-08-21T14:17:34;8.43;;;2.58;;
35743;SDS011;21867;52.012;4.324;2022-08-21T14:20:04;12.30;;;3.00;;
35743;SDS011;21867;52.012;4.324;2022-08-21T14:22:36;11.63;;;2.40;;
35743;SDS011;21867;52.012;4.324;2022-08-21T14:25:06;6.95;;;2.45;;
35743;SDS011;21867;52.012;4.324;2022-08-21T14:27:36;5.35;;;2.00;;
35743;SDS011;21867;52.012;4.324;2022-08-21T14:30:09;9.93;;;2.50;;
35743;SDS011;21867;52.012;4.324;2022-08-21T14:32:39;7.65;;;3.25;;
35743;SDS011;21867;52.012;4.324;2022-08-21T14:35:11;6.18;;;2.63;;
35743;SDS011;21867;52.012;4.324;2022-08-21T14:37:41;6.95;;;2.83;;
35743;SDS011;21867;52.012;4.324;2022-08-21T14:40:09;5.53;;;2.17;;
35743;SDS011;21867;52.012;4.324;2022-08-21T14:42:40;8.43;;;2.90;;
35743;SDS011;21867;52.012;4.324;2022-08-21T14:45:10;6.38;;;2.15;;
35743;SDS011;21867;52.012;4.324;2022-08-21T14:47:39;7.67;;;2.67;;
35743;SDS011;21867;52.012;4.324;2022-08-21T14:50:07;8.32;;;3.53;;
35743;SDS011;21867;52.012;4.324;2022-08-21T14:52:35;7.32;;;2.83;;
35743;SDS011;21867;52.012;4.324;2022-08-21T14:55:02;9.48;;;2.42;;
35743;SDS011;21867;52.012;4.324;2022-08-21T14:57:31;10.30;;;3.20;;
35743;SDS011;21867;52.012;4.324;2022-08-21T15:00:00;5.35;;;2.53;;
35743;SDS011;21867;52.012;4.324;2022-08-21T15:02:28;5.18;;;2.30;;
35743;SDS011;21867;52.012;4.324;2022-08-21T15:04:55;10.52;;;2.05;;
35743;SDS011;21867;52.012;4.324;2022-08-21T15:07:22;6.82;;;2.38;;
35743;SDS011;21867;52.012;4.324;2022-08-21T15:09:49;8.25;;;2.50;;
35743;SDS011;21867;52.012;4.324;2022-08-21T15:12:17;8.77;;;2.20;;
35743;SDS011;21867;52.012;4.324;2022-08-21T15:14:44;4.97;;;1.92;;
35743;SDS011;21867;52.012;4.324;2022-08-21T15:17:13;10.82;;;2.90;;
35743;SDS011;21867;52.012;4.324;2022-08-21T15:19:40;4.97;;;2.13;;
35743;SDS011;21867;52.012;4.324;2022-08-21T15:22:08;7.90;;;2.28;;
35743;SDS011;21867;52.012;4.324;2022-08-21T15:24:52;10.90;;;3.10;;
35743;SDS011;21867;52.012;4.324;2022-08-21T15:27:20;7.15;;;2.47;;
35743;SDS011;21867;52.012;4.324;2022-08-21T15:29:48;11.13;;;2.60;;
35743;SDS011;21867;52.012;4.324;2022-08-21T15:32:18;5.82;;;2.10;;
35743;SDS011;21867;52.012;4.324;2022-08-21T15:34:45;8.20;;;2.58;;
35743;SDS011;21867;52.012;4.324;2022-08-21T15:37:13;10.07;;;2.58;;